sensor_id;sensor_type;location;lat;lon;timestamp;P1;durP1;ratioP1;P2;durP2;ratioP2
52316;SDS011;38725;41.994;21.458;2022-08-14T00:00:00;21.92;;;13.68;;
52316;SDS011;38725;41.994;21.458;2022-08-14T00:02:27;17.58;;;13.07;;
52316;SDS011;38725;41.994;21.458;2022-08-14T00:04:53;19.45;;;12.93;;
52316;SDS011;38725;41.994;21.458;2022-08-14T00:07:19;17.02;;;12.25;;
52316;SDS011;38725;41.994;21.458;2022-08-14T00:09:45;19.73;;;13.80;;
52316;SDS011;38725;41.994;21.458;2022-08-14T00:12:11;19.27;;;11.98;;
52316;SDS011;38725;41.994;21.458;2022-08-14T00:14:37;17.27;;;11.30;;
52316;SDS011;38725;41.994;21.458;2022-08-14T00:17:04;19.20;;;12.93;;
52316;SDS011;38725;41.994;21.458;2022-08-14T00:19:30;18.10;;;12.30;;
52316;SDS011;38725;41.994;21.458;2022-08-14T00:21:56;18.65;;;12.95;;
52316;SDS011;38725;41.994;21.458;2022-08-14T00:24:22;17.95;;;11.65;;
52316;SDS011;38725;41.994;21.458;2022-08-14T00:26:48;17.95;;;11.90;;
52316;SDS011;38725;41.994;21.458;2022-08-14T00:29:14;17.75;;;13.10;;
52316;SDS011;38725;41.994;21.458;2022-08-14T00:31:41;16.98;;;12.10;;
52316;SDS011;38725;41.994;21.458;2022-08-14T00:34:07;18.05;;;12.77;;
52316;SDS011;38725;41.994;21.458;2022-08-14T00:36:33;18.50;;;12.68;;
52316;SDS011;38725;41.994;21.458;2022-08-14T00:38:59;24.52;;;15.95;;
52316;SDS011;38725;41.994;21.458;2022-08-14T00:41:29;23.20;;;15.70;;
52316;SDS011;38725;41.994;21.458;2022-08-14T00:43:55;28.15;;;16.00;;
52316;SDS011;38725;41.994;21.458;2022-08-14T00:46:21;22.02;;;14.52;;
52316;SDS011;38725;41.994;21.458;2022-08-14T00:48:47;21.98;;;15.02;;
52316;SDS011;38725;41.994;21.458;2022-08-14T00:51:14;23.73;;;14.80;;
52316;SDS011;38725;41.994;21.458;2022-08-14T00:53:40;19.73;;;13.82;;
52316;SDS011;38725;41.994;21.458;2022-08-14T00:56:07;23.65;;;15.82;;
52316;SDS011;38725;41.994;21.458;2022-08-14T00:58:34;23.73;;;14.90;;
52316;SDS011;38725;41.994;21.458;2022-08-14T01:01:03;24.45;;;15.93;;
52316;SDS011;38725;41.994;21.458;2022-08-14T01:03:30;25.17;;;15.50;;
52316;SDS011;38725;41.994;21.458;2022-08-14T01:06:04;25.90;;;15.35;;
52316;SDS011;38725;41.994;21.458;2022-08-14T01:08:32;23.00;;;15.57;;
52316;SDS011;38725;41.994;21.458;2022-08-14T01:10:59;25.25;;;16.83;;
52316;SDS011;38725;41.994;21.458;2022-08-14T01:13:27;24.85;;;16.55;;
52316;SDS011;38725;41.994;21.458;2022-08-14T01:15:54;25.20;;;16.40;;
52316;SDS011;38725;41.994;21.458;2022-08-14T01:18:22;27.73;;;18.15;;
52316;SDS011;38725;41.994;21.458;2022-08-14T01:21:07;27.67;;;17.20;;
52316;SDS011;38725;41.994;21.458;2022-08-14T01:23:41;26.42;;;16.58;;
52316;SDS011;38725;41.994;21.458;2022-08-14T01:26:08;30.40;;;17.88;;
52316;SDS011;38725;41.994;21.458;2022-08-14T01:28:35;26.20;;;16.80;;
52316;SDS011;38725;41.994;21.458;2022-08-14T01:31:09;28.50;;;17.02;;
52316;SDS011;38725;41.994;21.458;2022-08-14T01:33:36;25.45;;;15.90;;
52316;SDS011;38725;41.994;21.458;2022-08-14T01:36:05;26.63;;;16.70;;
52316;SDS011;38725;41.994;21.458;2022-08-14T01:38:31;31.08;;;18.10;;
52316;SDS011;38725;41.994;21.458;2022-08-14T01:41:01;31.52;;;18.73;;
52316;SDS011;38725;41.994;21.458;2022-08-14T01:43:28;29.88;;;18.10;;
52316;SDS011;38725;41.994;21.458;2022-08-14T01:46:03;26.95;;;17.38;;
52316;SDS011;38725;41.994;21.458;2022-08-14T01:48:30;22.52;;;15.15;;
52316;SDS011;38725;41.994;21.458;2022-08-14T01:50:58;21.70;;;14.20;;
52316;SDS011;38725;41.994;21.458;2022-08-14T01:53:27;22.95;;;15.07;;
52316;SDS011;38725;41.994;21.458;2022-08-14T01:55:56;21.60;;;14.95;;
52316;SDS011;38725;41.994;21.458;2022-08-14T01:58:23;22.33;;;13.13;;
52316;SDS011;38725;41.994;21.458;2022-08-14T02:00:52;24.83;;;16.45;;
52316;SDS011;38725;41.994;21.458;2022-08-14T02:03:19;29.00;;;17.92;;
52316;SDS011;38725;41.994;21.458;2022-08-14T02:05:46;28.92;;;16.63;;
52316;SDS011;38725;41.994;21.458;2022-08-14T02:08:13;28.40;;;17.23;;
52316;SDS011;38725;41.994;21.458;2022-08-14T02:10:41;25.75;;;17.25;;
52316;SDS011;38725;41.994;21.458;2022-08-14T02:13:08;27.45;;;16.45;;
52316;SDS011;38725;41.994;21.458;2022-08-14T02:15:35;28.50;;;17.50;;
52316;SDS011;38725;41.994;21.458;2022-08-14T02:18:05;26.67;;;17.15;;
52316;SDS011;38725;41.994;21.458;2022-08-14T02:20:32;30.67;;;17.77;;
52316;SDS011;38725;41.994;21.458;2022-08-14T02:22:59;29.17;;;17.98;;
52316;SDS011;38725;41.994;21.458;2022-08-14T02:25:25;28.00;;;17.30;;
52316;SDS011;38725;41.994;21.458;2022-08-14T02:27:52;31.92;;;19.17;;
52316;SDS011;38725;41.994;21.458;2022-08-14T02:30:21;29.15;;;18.02;;
52316;SDS011;38725;41.994;21.458;2022-08-14T02:32:48;28.90;;;18.42;;
52316;SDS011;38725;41.994;21.458;2022-08-14T02:35:15;27.30;;;16.95;;
52316;SDS011;38725;41.994;21.458;2022-08-14T02:37:43;28.92;;;17.70;;
52316;SDS011;38725;41.994;21.458;2022-08-14T02:40:09;24.70;;;15.85;;
52316;SDS011;38725;41.994;21.458;2022-08-14T02:42:37;25.77;;;16.38;;
52316;SDS011;38725;41.994;21.458;2022-08-14T02:45:03;28.75;;;16.40;;
52316;SDS011;38725;41.994;21.458;2022-08-14T02:47:30;30.13;;;16.70;;
52316;SDS011;38725;41.994;21.458;2022-08-14T02:49:58;26.02;;;16.25;;
52316;SDS011;38725;41.994;21.458;2022-08-14T02:52:24;25.13;;;16.05;;
52316;SDS011;38725;41.994;21.458;2022-08-14T02:54:51;26.42;;;16.48;;
52316;SDS011;38725;41.994;21.458;2022-08-14T02:57:18;24.73;;;17.10;;
52316;SDS011;38725;41.994;21.458;2022-08-14T02:59:46;23.30;;;15.40;;
52316;SDS011;38725;41.994;21.458;2022-08-14T03:02:13;24.63;;;14.02;;
52316;SDS011;38725;41.994;21.458;2022-08-14T03:04:40;25.25;;;15.40;;
52316;SDS011;38725;41.994;21.458;2022-08-14T03:07:07;21.27;;;13.68;;
52316;SDS011;38725;41.994;21.458;2022-08-14T03:09:36;23.05;;;14.45;;
52316;SDS011;38725;41.994;21.458;2022-08-14T03:12:04;18.85;;;13.80;;
52316;SDS011;38725;41.994;21.458;2022-08-14T03:14:30;18.83;;;13.02;;
52316;SDS011;38725;41.994;21.458;2022-08-14T03:17:00;18.90;;;12.65;;
52316;SDS011;38725;41.994;21.458;2022-08-14T03:19:26;19.77;;;12.00;;
52316;SDS011;38725;41.994;21.458;2022-08-14T03:21:53;16.92;;;11.88;;
52316;SDS011;38725;41.994;21.458;2022-08-14T03:24:19;22.25;;;13.02;;
52316;SDS011;38725;41.994;21.458;2022-08-14T03:26:48;22.55;;;13.45;;
52316;SDS011;38725;41.994;21.458;2022-08-14T03:29:16;20.25;;;13.85;;
52316;SDS011;38725;41.994;21.458;2022-08-14T03:31:44;22.15;;;13.85;;
52316;SDS011;38725;41.994;21.458;2022-08-14T03:34:13;18.33;;;12.52;;
52316;SDS011;38725;41.994;21.458;2022-08-14T03:36:39;20.08;;;12.43;;
52316;SDS011;38725;41.994;21.458;2022-08-14T03:39:07;18.55;;;12.57;;
52316;SDS011;38725;41.994;21.458;2022-08-14T03:41:34;20.63;;;13.52;;
52316;SDS011;38725;41.994;21.458;2022-08-14T03:44:01;22.85;;;14.25;;
52316;SDS011;38725;41.994;21.458;2022-08-14T03:46:29;21.90;;;14.23;;
52316;SDS011;38725;41.994;21.458;2022-08-14T03:48:55;19.30;;;13.70;;
52316;SDS011;38725;41.994;21.458;2022-08-14T03:51:22;18.75;;;13.63;;
52316;SDS011;38725;41.994;21.458;2022-08-14T03:53:52;18.90;;;13.27;;
52316;SDS011;38725;41.994;21.458;2022-08-14T03:56:19;18.17;;;13.00;;
52316;SDS011;38725;41.994;21.458;2022-08-14T03:58:46;18.85;;;12.68;;
52316;SDS011;38725;41.994;21.458;2022-08-14T04:01:14;21.25;;;14.48;;
52316;SDS011;38725;41.994;21.458;2022-08-14T04:03:40;21.45;;;14.35;;
52316;SDS011;38725;41.994;21.458;2022-08-14T04:06:06;22.60;;;14.07;;
52316;SDS011;38725;41.994;21.458;2022-08-14T04:08:39;21.80;;;14.10;;
52316;SDS011;38725;41.994;21.458;2022-08-14T04:11:06;20.65;;;13.90;;
52316;SDS011;38725;41.994;21.458;2022-08-14T04:13:33;22.52;;;15.23;;
52316;SDS011;38725;41.994;21.458;2022-08-14T04:16:00;19.23;;;14.18;;
52316;SDS011;38725;41.994;21.458;2022-08-14T04:18:26;19.25;;;13.68;;
52316;SDS011;38725;41.994;21.458;2022-08-14T04:20:53;20.10;;;13.00;;
52316;SDS011;38725;41.994;21.458;2022-08-14T04:23:23;18.73;;;14.07;;
52316;SDS011;38725;41.994;21.458;2022-08-14T04:25:49;19.42;;;13.18;;
52316;SDS011;38725;41.994;21.458;2022-08-14T04:28:19;20.45;;;13.07;;
52316;SDS011;38725;41.994;21.458;2022-08-14T04:30:45;21.52;;;12.65;;
52316;SDS011;38725;41.994;21.458;2022-08-14T04:33:11;18.08;;;13.02;;
52316;SDS011;38725;41.994;21.458;2022-08-14T04:35:38;18.48;;;12.77;;
52316;SDS011;38725;41.994;21.458;2022-08-14T04:38:08;18.88;;;12.82;;
52316;SDS011;38725;41.994;21.458;2022-08-14T04:40:53;22.48;;;13.38;;
52316;SDS011;38725;41.994;21.458;2022-08-14T04:43:38;22.30;;;13.98;;
52316;SDS011;38725;41.994;21.458;2022-08-14T04:48:30;20.17;;;13.98;;
52316;SDS011;38725;41.994;21.458;2022-08-14T04:50:57;19.13;;;13.80;;
52316;SDS011;38725;41.994;21.458;2022-08-14T04:53:25;21.48;;;13.88;;
52316;SDS011;38725;41.994;21.458;2022-08-14T04:55:51;18.63;;;12.88;;
52316;SDS011;38725;41.994;21.458;2022-08-14T04:58:19;17.08;;;12.85;;
52316;SDS011;38725;41.994;21.458;2022-08-14T05:00:46;17.33;;;12.50;;
52316;SDS011;38725;41.994;21.458;2022-08-14T05:03:23;20.92;;;12.38;;
52316;SDS011;38725;41.994;21.458;2022-08-14T05:05:50;16.40;;;12.48;;
52316;SDS011;38725;41.994;21.458;2022-08-14T05:08:17;17.45;;;13.07;;
52316;SDS011;38725;41.994;21.458;2022-08-14T05:10:45;19.52;;;13.25;;
52316;SDS011;38725;41.994;21.458;2022-08-14T05:13:11;19.98;;;12.55;;
52316;SDS011;38725;41.994;21.458;2022-08-14T05:15:38;17.85;;;12.05;;
52316;SDS011;38725;41.994;21.458;2022-08-14T05:18:09;16.77;;;12.02;;
52316;SDS011;38725;41.994;21.458;2022-08-14T05:20:41;21.08;;;13.65;;
52316;SDS011;38725;41.994;21.458;2022-08-14T05:23:08;16.67;;;12.25;;
52316;SDS011;38725;41.994;21.458;2022-08-14T05:25:34;18.70;;;12.75;;
52316;SDS011;38725;41.994;21.458;2022-08-14T05:28:12;19.73;;;12.85;;
52316;SDS011;38725;41.994;21.458;2022-08-14T05:30:46;20.30;;;12.65;;
52316;SDS011;38725;41.994;21.458;2022-08-14T05:33:13;19.52;;;13.05;;
52316;SDS011;38725;41.994;21.458;2022-08-14T05:35:40;16.17;;;12.45;;
52316;SDS011;38725;41.994;21.458;2022-08-14T05:38:07;16.25;;;11.65;;
52316;SDS011;38725;41.994;21.458;2022-08-14T05:40:33;17.45;;;12.55;;
52316;SDS011;38725;41.994;21.458;2022-08-14T05:43:00;17.42;;;13.00;;
52316;SDS011;38725;41.994;21.458;2022-08-14T05:45:27;17.45;;;12.68;;
52316;SDS011;38725;41.994;21.458;2022-08-14T05:47:53;20.50;;;13.48;;
52316;SDS011;38725;41.994;21.458;2022-08-14T05:50:19;24.50;;;14.27;;
52316;SDS011;38725;41.994;21.458;2022-08-14T05:52:48;24.25;;;15.25;;
52316;SDS011;38725;41.994;21.458;2022-08-14T05:55:15;24.30;;;15.48;;
52316;SDS011;38725;41.994;21.458;2022-08-14T05:57:45;26.20;;;16.77;;
52316;SDS011;38725;41.994;21.458;2022-08-14T06:00:12;29.88;;;17.35;;
52316;SDS011;38725;41.994;21.458;2022-08-14T06:02:38;27.58;;;16.25;;
52316;SDS011;38725;41.994;21.458;2022-08-14T06:05:04;24.38;;;15.40;;
52316;SDS011;38725;41.994;21.458;2022-08-14T06:07:34;24.63;;;16.60;;
52316;SDS011;38725;41.994;21.458;2022-08-14T06:10:00;26.98;;;16.02;;
52316;SDS011;38725;41.994;21.458;2022-08-14T06:12:26;28.13;;;17.17;;
52316;SDS011;38725;41.994;21.458;2022-08-14T06:14:52;27.95;;;16.83;;
52316;SDS011;38725;41.994;21.458;2022-08-14T06:17:18;26.17;;;16.33;;
52316;SDS011;38725;41.994;21.458;2022-08-14T06:19:44;22.40;;;15.70;;
52316;SDS011;38725;41.994;21.458;2022-08-14T06:22:10;31.60;;;18.60;;
52316;SDS011;38725;41.994;21.458;2022-08-14T06:24:37;26.90;;;17.10;;
52316;SDS011;38725;41.994;21.458;2022-08-14T06:27:03;25.95;;;16.65;;
52316;SDS011;38725;41.994;21.458;2022-08-14T06:29:29;25.23;;;15.93;;
52316;SDS011;38725;41.994;21.458;2022-08-14T06:31:56;27.25;;;17.70;;
52316;SDS011;38725;41.994;21.458;2022-08-14T06:34:22;23.10;;;13.00;;
52316;SDS011;38725;41.994;21.458;2022-08-14T06:36:48;14.90;;;9.02;;
52316;SDS011;38725;41.994;21.458;2022-08-14T06:39:14;15.13;;;9.52;;
52316;SDS011;38725;41.994;21.458;2022-08-14T06:41:41;12.70;;;9.00;;
52316;SDS011;38725;41.994;21.458;2022-08-14T06:44:07;13.27;;;9.63;;
52316;SDS011;38725;41.994;21.458;2022-08-14T06:46:34;15.82;;;10.57;;
52316;SDS011;38725;41.994;21.458;2022-08-14T06:49:00;17.25;;;11.93;;
52316;SDS011;38725;41.994;21.458;2022-08-14T06:51:26;21.27;;;14.32;;
52316;SDS011;38725;41.994;21.458;2022-08-14T06:53:53;24.30;;;15.07;;
52316;SDS011;38725;41.994;21.458;2022-08-14T06:56:19;24.55;;;14.75;;
52316;SDS011;38725;41.994;21.458;2022-08-14T06:58:47;24.48;;;15.65;;
52316;SDS011;38725;41.994;21.458;2022-08-14T07:01:13;22.98;;;15.68;;
52316;SDS011;38725;41.994;21.458;2022-08-14T07:03:57;23.53;;;14.83;;
52316;SDS011;38725;41.994;21.458;2022-08-14T07:06:42;20.80;;;12.60;;
52316;SDS011;38725;41.994;21.458;2022-08-14T07:09:08;16.02;;;11.70;;
52316;SDS011;38725;41.994;21.458;2022-08-14T07:11:35;17.35;;;11.68;;
52316;SDS011;38725;41.994;21.458;2022-08-14T07:14:01;14.98;;;10.75;;
52316;SDS011;38725;41.994;21.458;2022-08-14T07:16:27;12.88;;;9.70;;
52316;SDS011;38725;41.994;21.458;2022-08-14T07:18:53;7.90;;;6.70;;
52316;SDS011;38725;41.994;21.458;2022-08-14T07:21:20;9.48;;;6.15;;
52316;SDS011;38725;41.994;21.458;2022-08-14T07:23:46;6.88;;;5.03;;
52316;SDS011;38725;41.994;21.458;2022-08-14T07:26:12;7.55;;;5.10;;
52316;SDS011;38725;41.994;21.458;2022-08-14T07:28:39;5.82;;;4.22;;
52316;SDS011;38725;41.994;21.458;2022-08-14T07:31:06;5.13;;;3.72;;
52316;SDS011;38725;41.994;21.458;2022-08-14T07:33:34;5.95;;;4.40;;
52316;SDS011;38725;41.994;21.458;2022-08-14T07:36:03;6.90;;;4.18;;
52316;SDS011;38725;41.994;21.458;2022-08-14T07:38:29;6.38;;;4.15;;
52316;SDS011;38725;41.994;21.458;2022-08-14T07:40:56;5.70;;;3.10;;
52316;SDS011;38725;41.994;21.458;2022-08-14T07:43:23;4.90;;;3.50;;
52316;SDS011;38725;41.994;21.458;2022-08-14T07:45:50;4.47;;;3.22;;
52316;SDS011;38725;41.994;21.458;2022-08-14T07:48:16;5.78;;;3.08;;
52316;SDS011;38725;41.994;21.458;2022-08-14T07:50:43;4.85;;;3.50;;
52316;SDS011;38725;41.994;21.458;2022-08-14T07:53:09;3.70;;;3.03;;
52316;SDS011;38725;41.994;21.458;2022-08-14T07:55:38;3.25;;;2.92;;
52316;SDS011;38725;41.994;21.458;2022-08-14T07:58:04;4.32;;;3.38;;
52316;SDS011;38725;41.994;21.458;2022-08-14T08:00:30;5.97;;;3.33;;
52316;SDS011;38725;41.994;21.458;2022-08-14T08:02:57;3.03;;;2.10;;
52316;SDS011;38725;41.994;21.458;2022-08-14T08:05:23;2.90;;;2.60;;
52316;SDS011;38725;41.994;21.458;2022-08-14T08:07:50;3.10;;;2.42;;
52316;SDS011;38725;41.994;21.458;2022-08-14T08:10:18;4.03;;;2.58;;
52316;SDS011;38725;41.994;21.458;2022-08-14T08:12:58;3.28;;;2.97;;
52316;SDS011;38725;41.994;21.458;2022-08-14T08:15:25;3.63;;;3.28;;
52316;SDS011;38725;41.994;21.458;2022-08-14T08:17:52;3.60;;;2.88;;
52316;SDS011;38725;41.994;21.458;2022-08-14T08:20:20;7.72;;;5.40;;
52316;SDS011;38725;41.994;21.458;2022-08-14T08:22:48;4.25;;;3.85;;
52316;SDS011;38725;41.994;21.458;2022-08-14T08:25:15;6.45;;;3.65;;
52316;SDS011;38725;41.994;21.458;2022-08-14T08:27:52;4.72;;;3.92;;
52316;SDS011;38725;41.994;21.458;2022-08-14T08:30:18;6.00;;;4.03;;
52316;SDS011;38725;41.994;21.458;2022-08-14T08:32:45;4.72;;;3.65;;
52316;SDS011;38725;41.994;21.458;2022-08-14T08:35:15;5.70;;;3.72;;
52316;SDS011;38725;41.994;21.458;2022-08-14T08:37:42;4.47;;;3.60;;
52316;SDS011;38725;41.994;21.458;2022-08-14T08:40:09;4.57;;;3.40;;
52316;SDS011;38725;41.994;21.458;2022-08-14T08:42:35;5.22;;;3.35;;
52316;SDS011;38725;41.994;21.458;2022-08-14T08:45:01;4.05;;;3.38;;
52316;SDS011;38725;41.994;21.458;2022-08-14T08:47:37;5.45;;;3.63;;
52316;SDS011;38725;41.994;21.458;2022-08-14T08:50:03;4.18;;;3.25;;
52316;SDS011;38725;41.994;21.458;2022-08-14T08:52:48;4.78;;;3.40;;
52316;SDS011;38725;41.994;21.458;2022-08-14T08:55:14;3.20;;;2.90;;
52316;SDS011;38725;41.994;21.458;2022-08-14T08:57:42;3.33;;;3.03;;
52316;SDS011;38725;41.994;21.458;2022-08-14T09:00:12;3.45;;;3.08;;
52316;SDS011;38725;41.994;21.458;2022-08-14T09:02:41;4.28;;;3.40;;
52316;SDS011;38725;41.994;21.458;2022-08-14T09:05:08;3.20;;;2.90;;
52316;SDS011;38725;41.994;21.458;2022-08-14T09:07:34;3.60;;;3.05;;
52316;SDS011;38725;41.994;21.458;2022-08-14T09:10:00;6.70;;;3.55;;
52316;SDS011;38725;41.994;21.458;2022-08-14T09:12:27;3.20;;;2.90;;
52316;SDS011;38725;41.994;21.458;2022-08-14T09:14:53;5.25;;;3.28;;
52316;SDS011;38725;41.994;21.458;2022-08-14T09:17:19;3.45;;;3.15;;
52316;SDS011;38725;41.994;21.458;2022-08-14T09:19:46;4.43;;;3.08;;
52316;SDS011;38725;41.994;21.458;2022-08-14T09:22:13;5.05;;;3.15;;
52316;SDS011;38725;41.994;21.458;2022-08-14T09:24:39;3.63;;;2.38;;
52316;SDS011;38725;41.994;21.458;2022-08-14T09:27:06;4.20;;;2.28;;
52316;SDS011;38725;41.994;21.458;2022-08-14T09:29:32;3.33;;;2.50;;
52316;SDS011;38725;41.994;21.458;2022-08-14T09:32:01;3.10;;;2.53;;
52316;SDS011;38725;41.994;21.458;2022-08-14T09:39:44;5.75;;;2.75;;
52316;SDS011;38725;41.994;21.458;2022-08-14T09:47:42;4.75;;;2.25;;
52316;SDS011;38725;41.994;21.458;2022-08-14T09:50:15;3.35;;;2.25;;
52316;SDS011;38725;41.994;21.458;2022-08-14T09:52:49;3.03;;;2.30;;
52316;SDS011;38725;41.994;21.458;2022-08-14T09:55:20;4.82;;;2.65;;
52316;SDS011;38725;41.994;21.458;2022-08-14T09:57:46;2.60;;;2.40;;
52316;SDS011;38725;41.994;21.458;2022-08-14T10:00:13;1.30;;;1.20;;
52316;SDS011;38725;41.994;21.458;2022-08-14T10:02:50;2.10;;;1.33;;
52316;SDS011;38725;41.994;21.458;2022-08-14T10:05:26;1.83;;;1.50;;
52316;SDS011;38725;41.994;21.458;2022-08-14T10:07:53;3.03;;;2.10;;
52316;SDS011;38725;41.994;21.458;2022-08-14T10:10:40;2.60;;;2.40;;
52316;SDS011;38725;41.994;21.458;2022-08-14T10:13:06;2.30;;;2.10;;
52316;SDS011;38725;41.994;21.458;2022-08-14T10:15:43;3.42;;;2.20;;
52316;SDS011;38725;41.994;21.458;2022-08-14T10:18:11;2.47;;;1.95;;
52316;SDS011;38725;41.994;21.458;2022-08-14T10:20:38;2.58;;;1.90;;
52316;SDS011;38725;41.994;21.458;2022-08-14T10:25:39;2.60;;;1.80;;
52316;SDS011;38725;41.994;21.458;2022-08-14T10:28:07;2.05;;;1.55;;
52316;SDS011;38725;41.994;21.458;2022-08-14T10:30:33;3.55;;;1.70;;
52316;SDS011;38725;41.994;21.458;2022-08-14T10:33:01;2.33;;;1.90;;
52316;SDS011;38725;41.994;21.458;2022-08-14T10:35:37;2.88;;;2.03;;
52316;SDS011;38725;41.994;21.458;2022-08-14T10:38:04;2.50;;;2.20;;
52316;SDS011;38725;41.994;21.458;2022-08-14T10:40:32;2.55;;;2.35;;
52316;SDS011;38725;41.994;21.458;2022-08-14T10:42:58;2.33;;;2.10;;
52316;SDS011;38725;41.994;21.458;2022-08-14T10:45:33;3.65;;;2.42;;
52316;SDS011;38725;41.994;21.458;2022-08-14T10:47:59;3.35;;;2.10;;
52316;SDS011;38725;41.994;21.458;2022-08-14T10:50:29;3.50;;;2.10;;
52316;SDS011;38725;41.994;21.458;2022-08-14T10:52:56;3.15;;;2.72;;
52316;SDS011;38725;41.994;21.458;2022-08-14T10:55:33;3.72;;;2.83;;
52316;SDS011;38725;41.994;21.458;2022-08-14T10:58:03;3.13;;;2.72;;
52316;SDS011;38725;41.994;21.458;2022-08-14T11:00:34;3.28;;;2.88;;
52316;SDS011;38725;41.994;21.458;2022-08-14T11:03:01;6.18;;;3.00;;
52316;SDS011;38725;41.994;21.458;2022-08-14T11:05:45;5.95;;;2.60;;
52316;SDS011;38725;41.994;21.458;2022-08-14T11:08:12;3.15;;;2.70;;
52316;SDS011;38725;41.994;21.458;2022-08-14T11:10:53;3.63;;;2.50;;
52316;SDS011;38725;41.994;21.458;2022-08-14T11:13:23;2.72;;;2.28;;
52316;SDS011;38725;41.994;21.458;2022-08-14T11:15:51;3.08;;;2.05;;
52316;SDS011;38725;41.994;21.458;2022-08-14T11:18:19;4.43;;;2.50;;
52316;SDS011;38725;41.994;21.458;2022-08-14T11:20:50;3.83;;;2.03;;
52316;SDS011;38725;41.994;21.458;2022-08-14T11:23:24;2.88;;;2.47;;
52316;SDS011;38725;41.994;21.458;2022-08-14T11:25:52;3.55;;;1.92;;
52316;SDS011;38725;41.994;21.458;2022-08-14T11:28:21;2.38;;;1.92;;
52316;SDS011;38725;41.994;21.458;2022-08-14T11:30:49;5.05;;;2.00;;
52316;SDS011;38725;41.994;21.458;2022-08-14T11:33:17;3.00;;;2.05;;
52316;SDS011;38725;41.994;21.458;2022-08-14T11:35:47;2.83;;;2.20;;
52316;SDS011;38725;41.994;21.458;2022-08-14T11:38:13;3.45;;;2.40;;
52316;SDS011;38725;41.994;21.458;2022-08-14T11:40:41;4.07;;;2.20;;
52316;SDS011;38725;41.994;21.458;2022-08-14T11:43:08;3.45;;;2.22;;
52316;SDS011;38725;41.994;21.458;2022-08-14T11:45:35;3.15;;;2.20;;
52316;SDS011;38725;41.994;21.458;2022-08-14T11:50:40;2.22;;;2.03;;
52316;SDS011;38725;41.994;21.458;2022-08-14T11:53:09;4.43;;;2.00;;
52316;SDS011;38725;41.994;21.458;2022-08-14T11:55:44;2.25;;;2.05;;
52316;SDS011;38725;41.994;21.458;2022-08-14T11:58:10;2.63;;;2.13;;
52316;SDS011;38725;41.994;21.458;2022-08-14T12:00:50;2.55;;;2.17;;
52316;SDS011;38725;41.994;21.458;2022-08-14T12:03:17;2.97;;;2.20;;
52316;SDS011;38725;41.994;21.458;2022-08-14T12:05:43;2.63;;;2.30;;
52316;SDS011;38725;41.994;21.458;2022-08-14T12:08:10;2.85;;;2.00;;
52316;SDS011;38725;41.994;21.458;2022-08-14T12:10:37;2.55;;;2.08;;
52316;SDS011;38725;41.994;21.458;2022-08-14T12:13:13;3.08;;;2.13;;
52316;SDS011;38725;41.994;21.458;2022-08-14T12:15:41;2.88;;;2.50;;
52316;SDS011;38725;41.994;21.458;2022-08-14T12:18:07;4.93;;;2.10;;
52316;SDS011;38725;41.994;21.458;2022-08-14T12:20:35;2.92;;;2.00;;
52316;SDS011;38725;41.994;21.458;2022-08-14T12:23:05;2.97;;;2.08;;
52316;SDS011;38725;41.994;21.458;2022-08-14T12:25:31;2.30;;;2.00;;
52316;SDS011;38725;41.994;21.458;2022-08-14T12:28:00;3.72;;;1.40;;
52316;SDS011;38725;41.994;21.458;2022-08-14T12:30:33;2.70;;;1.27;;
52316;SDS011;38725;41.994;21.458;2022-08-14T12:33:03;2.17;;;1.13;;
52316;SDS011;38725;41.994;21.458;2022-08-14T12:35:40;6.95;;;1.55;;
52316;SDS011;38725;41.994;21.458;2022-08-14T12:38:07;1.90;;;1.38;;
52316;SDS011;38725;41.994;21.458;2022-08-14T12:40:44;3.13;;;1.30;;
52316;SDS011;38725;41.994;21.458;2022-08-14T12:43:10;2.80;;;1.38;;
52316;SDS011;38725;41.994;21.458;2022-08-14T12:45:36;2.03;;;1.25;;
52316;SDS011;38725;41.994;21.458;2022-08-14T12:48:03;1.83;;;0.95;;
52316;SDS011;38725;41.994;21.458;2022-08-14T12:50:40;2.72;;;0.90;;
52316;SDS011;38725;41.994;21.458;2022-08-14T12:53:07;1.60;;;1.05;;
52316;SDS011;38725;41.994;21.458;2022-08-14T12:55:34;2.50;;;1.30;;
52316;SDS011;38725;41.994;21.458;2022-08-14T12:58:01;1.30;;;1.13;;
52316;SDS011;38725;41.994;21.458;2022-08-14T13:00:29;1.90;;;1.50;;
52316;SDS011;38725;41.994;21.458;2022-08-14T13:02:56;2.30;;;1.70;;
52316;SDS011;38725;41.994;21.458;2022-08-14T13:05:23;3.30;;;2.05;;
52316;SDS011;38725;41.994;21.458;2022-08-14T13:07:50;2.10;;;1.80;;
52316;SDS011;38725;41.994;21.458;2022-08-14T13:10:17;2.35;;;1.83;;
52316;SDS011;38725;41.994;21.458;2022-08-14T13:12:44;2.83;;;2.30;;
52316;SDS011;38725;41.994;21.458;2022-08-14T13:15:11;2.60;;;2.20;;
52316;SDS011;38725;41.994;21.458;2022-08-14T13:17:48;2.42;;;1.92;;
52316;SDS011;38725;41.994;21.458;2022-08-14T13:20:17;2.75;;;2.30;;
52316;SDS011;38725;41.994;21.458;2022-08-14T13:22:44;2.83;;;2.50;;
52316;SDS011;38725;41.994;21.458;2022-08-14T13:25:11;4.63;;;2.85;;
52316;SDS011;38725;41.994;21.458;2022-08-14T13:27:38;4.20;;;2.75;;
52316;SDS011;38725;41.994;21.458;2022-08-14T13:30:06;3.95;;;2.70;;
52316;SDS011;38725;41.994;21.458;2022-08-14T13:32:32;4.10;;;3.00;;
52316;SDS011;38725;41.994;21.458;2022-08-14T13:35:04;3.22;;;2.88;;
52316;SDS011;38725;41.994;21.458;2022-08-14T13:37:30;4.90;;;3.05;;
52316;SDS011;38725;41.994;21.458;2022-08-14T13:39:56;4.53;;;2.90;;
52316;SDS011;38725;41.994;21.458;2022-08-14T13:42:23;4.97;;;3.42;;
52316;SDS011;38725;41.994;21.458;2022-08-14T13:44:52;7.57;;;3.30;;
52316;SDS011;38725;41.994;21.458;2022-08-14T13:47:22;4.57;;;3.53;;
52316;SDS011;38725;41.994;21.458;2022-08-14T13:49:49;7.03;;;3.72;;
52316;SDS011;38725;41.994;21.458;2022-08-14T13:52:18;5.30;;;4.00;;
52316;SDS011;38725;41.994;21.458;2022-08-14T13:54:45;6.97;;;4.07;;
52316;SDS011;38725;41.994;21.458;2022-08-14T13:57:12;6.70;;;3.55;;
52316;SDS011;38725;41.994;21.458;2022-08-14T13:59:43;7.03;;;3.30;;
52316;SDS011;38725;41.994;21.458;2022-08-14T14:02:09;5.43;;;3.72;;
52316;SDS011;38725;41.994;21.458;2022-08-14T14:04:39;5.60;;;4.20;;
52316;SDS011;38725;41.994;21.458;2022-08-14T14:07:07;7.68;;;3.70;;
52316;SDS011;38725;41.994;21.458;2022-08-14T14:09:36;6.25;;;4.00;;
52316;SDS011;38725;41.994;21.458;2022-08-14T14:12:03;8.63;;;4.40;;
52316;SDS011;38725;41.994;21.458;2022-08-14T14:14:32;7.00;;;4.07;;
52316;SDS011;38725;41.994;21.458;2022-08-14T14:16:59;5.68;;;4.10;;
52316;SDS011;38725;41.994;21.458;2022-08-14T14:19:25;6.60;;;4.03;;
52316;SDS011;38725;41.994;21.458;2022-08-14T14:21:52;7.28;;;3.92;;
52316;SDS011;38725;41.994;21.458;2022-08-14T14:24:19;5.22;;;4.28;;
52316;SDS011;38725;41.994;21.458;2022-08-14T14:26:46;7.22;;;4.50;;
52316;SDS011;38725;41.994;21.458;2022-08-14T14:29:12;7.38;;;4.05;;
52316;SDS011;38725;41.994;21.458;2022-08-14T14:31:39;5.60;;;4.10;;
52316;SDS011;38725;41.994;21.458;2022-08-14T14:34:07;9.35;;;4.45;;
52316;SDS011;38725;41.994;21.458;2022-08-14T14:36:33;8.93;;;4.85;;
52316;SDS011;38725;41.994;21.458;2022-08-14T14:39:01;6.55;;;5.07;;
52316;SDS011;38725;41.994;21.458;2022-08-14T14:41:28;7.35;;;4.80;;
52316;SDS011;38725;41.994;21.458;2022-08-14T14:43:55;5.68;;;4.13;;